createdAt,value
2018-03-17T00:00:23.485Z,2.04
2018-03-17T00:02:54.199Z,2.13
2018-03-17T00:05:24.216Z,2.11
2018-03-17T00:07:54.018Z,2.10
2018-03-17T00:10:23.898Z,1.83
2018-03-17T00:12:53.677Z,1.90
2018-03-17T00:15:24.699Z,2.02
2018-03-17T00:17:54.913Z,2.04
2018-03-17T00:20:24.733Z,1.96
2018-03-17T00:22:54.506Z,1.90
2018-03-17T00:25:24.340Z,1.85
2018-03-17T00:27:54.334Z,1.97
2018-03-17T00:30:24.052Z,1.96
2018-03-17T00:32:53.846Z,1.81
2018-03-17T00:35:23.702Z,1.73
2018-03-17T00:37:53.461Z,1.80
2018-03-17T00:40:23.527Z,1.76
2018-03-17T00:42:53.342Z,1.78
2018-03-17T00:45:23.398Z,1.73
2018-03-17T00:47:54.151Z,1.79
2018-03-17T00:50:24.001Z,1.61
2018-03-17T00:52:53.707Z,1.74
2018-03-17T00:55:23.497Z,1.65
2018-03-17T00:57:53.628Z,1.55
2018-03-17T01:00:23.810Z,1.52
2018-03-17T01:02:54.542Z,1.55
2018-03-17T01:05:25.160Z,1.57
2018-03-17T01:07:54.944Z,1.44
2018-03-17T01:10:25.144Z,1.35
2018-03-17T01:12:55.016Z,1.40
2018-03-17T01:15:24.863Z,1.50
2018-03-17T01:17:54.886Z,1.70
2018-03-17T01:20:24.722Z,1.50
2018-03-17T01:22:54.510Z,1.38
2018-03-17T01:25:24.244Z,1.34
2018-03-17T01:27:54.124Z,1.41
2018-03-17T01:30:23.930Z,1.41
2018-03-17T01:32:54.545Z,1.50
2018-03-17T01:35:24.448Z,1.60
2018-03-17T01:37:54.630Z,1.53
2018-03-17T01:40:24.796Z,1.54
2018-03-17T01:42:55.385Z,1.31
2018-03-17T01:45:25.217Z,1.24
2018-03-17T01:47:55.119Z,1.32
2018-03-17T01:50:24.904Z,1.35
2018-03-17T01:52:54.976Z,1.24
2018-03-17T01:55:24.800Z,1.33
2018-03-17T01:57:55.319Z,1.34
2018-03-17T02:00:25.180Z,1.34
2018-03-17T02:02:55.501Z,1.33
2018-03-17T02:05:25.697Z,1.35
2018-03-17T02:07:56.471Z,1.14
2018-03-17T02:10:26.320Z,1.17
2018-03-17T02:12:55.988Z,1.37
2018-03-17T02:15:25.758Z,1.19
2018-03-17T02:17:55.656Z,1.28
2018-03-17T02:20:25.405Z,1.14
2018-03-17T02:22:56.012Z,1.22
2018-03-17T02:25:25.751Z,1.14
2018-03-17T02:27:56.670Z,1.08
2018-03-17T02:30:26.378Z,1.03
2018-03-17T02:32:56.131Z,1.14
2018-03-17T02:35:25.991Z,0.95
2018-03-17T02:37:55.724Z,1.10
2018-03-17T02:40:26.306Z,1.00
2018-03-17T02:42:56.201Z,0.92
2018-03-17T02:45:26.029Z,0.78
2018-03-17T02:47:55.822Z,0.96
2018-03-17T02:50:25.642Z,0.95
2018-03-17T02:52:55.332Z,0.97
2018-03-17T02:55:25.860Z,0.85
2018-03-17T02:57:55.735Z,0.87
2018-03-17T03:00:25.444Z,0.98
2018-03-17T03:02:55.296Z,0.96
2018-03-17T03:05:25.897Z,1.00
2018-03-17T03:07:55.666Z,0.87
2018-03-17T03:10:25.364Z,1.01
2018-03-17T03:12:55.330Z,0.85
2018-03-17T03:15:25.106Z,0.83
2018-03-17T03:17:55.145Z,0.89
2018-03-17T03:20:24.992Z,0.78
2018-03-17T03:22:55.559Z,0.81
2018-03-17T03:25:25.326Z,0.83
2018-03-17T03:27:55.224Z,0.67
2018-03-17T03:30:25.017Z,0.79
2018-03-17T03:32:54.919Z,0.75
2018-03-17T03:35:24.715Z,0.66
2018-03-17T03:37:54.672Z,0.64
2018-03-17T03:40:24.396Z,0.68
2018-03-17T03:42:54.108Z,0.67
2018-03-17T03:45:23.800Z,0.68
2018-03-17T03:47:53.581Z,0.63
2018-03-17T03:50:23.282Z,0.72
2018-03-17T03:52:53.151Z,0.62
2018-03-17T03:55:22.935Z,0.49
2018-03-17T03:57:52.681Z,0.61
2018-03-17T04:00:22.428Z,0.81
2018-03-17T04:02:52.528Z,0.86
2018-03-17T04:05:23.129Z,0.60
2018-03-17T04:07:52.916Z,0.45
2018-03-17T04:10:22.792Z,0.41
2018-03-17T04:12:53.344Z,0.42
2018-03-17T04:15:23.053Z,0.38
2018-03-17T04:17:53.084Z,0.46
2018-03-17T04:20:23.008Z,0.51
2018-03-17T04:22:52.912Z,0.43
2018-03-17T04:25:22.877Z,0.50
2018-03-17T04:27:52.673Z,0.33
2018-03-17T04:30:22.635Z,0.18
2018-03-17T04:32:53.077Z,0.13
2018-03-17T04:35:23.036Z,0.17
2018-03-17T04:37:52.936Z,0.00
2018-03-17T04:40:22.624Z,0.17
2018-03-17T04:42:52.456Z,0.18
2018-03-17T04:45:22.285Z,0.08
2018-03-17T04:47:52.085Z,0.09
2018-03-17T04:50:21.876Z,0.11
2018-03-17T04:52:51.600Z,0.09
2018-03-17T04:55:21.420Z,0.11
2018-03-17T04:57:51.323Z,-0.08
2018-03-17T05:00:21.047Z,0.02
2018-03-17T05:02:50.898Z,-0.03
2018-03-17T05:05:20.671Z,0.03
2018-03-17T05:07:50.637Z,-0.04
2018-03-17T05:10:21.084Z,0.01
2018-03-17T05:12:50.924Z,0.07
2018-03-17T05:15:20.716Z,0.07
2018-03-17T05:17:50.419Z,0.04
2018-03-17T05:20:20.132Z,-0.04
2018-03-17T05:22:49.864Z,-0.07
2018-03-17T05:25:19.744Z,-0.11
2018-03-17T05:27:50.216Z,-0.02
2018-03-17T05:30:20.100Z,-0.05
2018-03-17T05:32:49.792Z,-0.06
2018-03-17T05:35:20.402Z,-0.10
2018-03-17T05:37:50.198Z,-0.05
2018-03-17T05:40:20.116Z,-0.11
2018-03-17T05:42:49.877Z,-0.20
2018-03-17T05:45:20.425Z,-0.12
2018-03-17T05:47:50.647Z,-0.12
2018-03-17T05:50:20.468Z,-0.22
2018-03-17T05:52:50.283Z,-0.17
2018-03-17T05:55:20.008Z,-0.26
2018-03-17T05:57:49.699Z,-0.13
2018-03-17T06:00:19.643Z,0.01
2018-03-17T06:02:49.429Z,0.05
2018-03-17T06:05:19.135Z,-0.08
2018-03-17T06:07:48.999Z,-0.18
2018-03-17T06:10:18.720Z,-0.22
2018-03-17T06:12:49.280Z,-0.21
2018-03-17T06:15:19.040Z,-0.34
2018-03-17T06:17:48.766Z,-0.38
2018-03-17T06:20:18.587Z,-0.39
2018-03-17T06:22:48.289Z,-0.26
2018-03-17T06:25:18.537Z,-0.25
2018-03-17T06:27:48.612Z,-0.38
2018-03-17T06:30:18.416Z,-0.39
2018-03-17T06:32:48.245Z,-0.40
2018-03-17T06:35:17.972Z,-0.32
2018-03-17T06:37:47.869Z,-0.42
2018-03-17T06:40:17.631Z,-0.27
2018-03-17T06:42:47.421Z,-0.28
2018-03-17T06:45:18.036Z,-0.43
2018-03-17T06:47:47.872Z,-0.35
2018-03-17T06:50:18.321Z,-0.28
2018-03-17T06:52:48.043Z,-0.30
2018-03-17T06:55:18.072Z,-0.44
2018-03-17T06:57:47.760Z,-0.49
2018-03-17T07:00:17.435Z,-0.47
2018-03-17T07:02:47.114Z,-0.47
2018-03-17T07:05:16.919Z,-0.50
2018-03-17T07:07:46.768Z,-0.44
2018-03-17T07:10:17.500Z,-0.64
2018-03-17T07:12:47.376Z,-0.64
2018-03-17T07:15:17.488Z,-0.59
2018-03-17T07:17:47.437Z,-0.51
2018-03-17T07:20:17.176Z,-0.60
2018-03-17T07:22:47.077Z,-0.63
2018-03-17T07:25:16.887Z,-0.68
2018-03-17T07:27:46.704Z,-0.71
2018-03-17T07:30:16.758Z,-0.70
2018-03-17T07:32:47.320Z,-0.74
2018-03-17T07:35:17.179Z,-0.74
2018-03-17T07:37:47.129Z,-0.80
2018-03-17T07:40:17.022Z,-0.72
2018-03-17T07:42:47.582Z,-0.87
2018-03-17T07:45:17.430Z,-0.76
2018-03-17T07:47:47.301Z,-0.86
2018-03-17T07:50:17.120Z,-0.85
2018-03-17T07:52:46.818Z,-0.89
2018-03-17T07:55:16.676Z,-0.76
2018-03-17T07:57:46.500Z,-0.82
2018-03-17T08:00:16.276Z,-0.96
2018-03-17T08:02:46.098Z,-0.96
2018-03-17T08:05:15.928Z,-0.94
2018-03-17T08:07:46.444Z,-0.89
2018-03-17T08:10:16.232Z,-0.77
2018-03-17T08:12:45.968Z,-0.91
2018-03-17T08:15:15.871Z,-0.89
2018-03-17T08:17:45.604Z,-0.97
2018-03-17T08:20:15.425Z,-1.07
2018-03-17T08:22:45.190Z,-0.90
2018-03-17T08:25:15.611Z,-0.85
2018-03-17T08:27:45.341Z,-0.91
2018-03-17T08:30:15.769Z,-1.14
2018-03-17T08:32:45.691Z,-1.05
2018-03-17T08:35:15.556Z,-0.96
2018-03-17T08:37:46.169Z,-1.22
2018-03-17T08:40:15.975Z,-1.11
2018-03-17T08:42:45.793Z,-1.29
2018-03-17T08:45:15.821Z,-1.25
2018-03-17T08:47:45.732Z,-1.30
2018-03-17T08:50:15.821Z,-1.36
2018-03-17T08:52:45.735Z,-1.42
2018-03-17T08:55:15.596Z,-1.24
2018-03-17T08:57:46.319Z,-1.33
2018-03-17T09:00:16.174Z,-1.39
2018-03-17T09:02:45.936Z,-1.25
2018-03-17T09:05:15.812Z,-1.22
2018-03-17T09:07:46.150Z,-1.32
2018-03-17T09:10:15.989Z,-1.46
2018-03-17T09:12:45.873Z,-1.38
2018-03-17T09:15:15.920Z,-1.33
2018-03-17T09:17:46.598Z,-1.20
2018-03-17T09:20:16.417Z,-1.10
2018-03-17T09:22:46.382Z,-0.97
2018-03-17T09:25:16.289Z,-1.06
2018-03-17T09:27:46.129Z,-1.15
2018-03-17T09:30:16.217Z,-0.84
2018-03-17T09:32:46.230Z,-0.92
2018-03-17T09:35:16.136Z,-0.91
2018-03-17T09:37:45.947Z,-0.83
2018-03-17T09:40:15.946Z,-0.81
2018-03-17T09:42:46.455Z,-0.99
2018-03-17T09:45:17.211Z,-1.04
2018-03-17T09:47:47.044Z,-1.20
2018-03-17T09:50:16.811Z,-1.05
2018-03-17T09:52:47.521Z,-1.15
2018-03-17T09:55:17.289Z,-1.05
2018-03-17T09:57:47.167Z,-1.06
2018-03-17T10:00:17.858Z,-0.96
2018-03-17T10:02:47.751Z,-0.78
2018-03-17T10:05:17.516Z,-0.77
2018-03-17T10:07:48.200Z,-0.77
2018-03-17T10:10:18.130Z,-1.01
2018-03-17T10:12:48.258Z,-1.19
2018-03-17T10:15:18.070Z,-1.24
2018-03-17T10:17:48.062Z,-0.95
2018-03-17T10:20:18.046Z,-0.94
2018-03-17T10:22:48.861Z,-1.10
2018-03-17T10:25:18.918Z,-1.08
2018-03-17T10:27:49.009Z,-1.22
2018-03-17T10:30:18.756Z,-1.22
2018-03-17T10:32:48.582Z,-1.05
2018-03-17T10:35:18.391Z,-1.20
2018-03-17T10:37:48.698Z,-0.97
2018-03-17T10:40:18.773Z,-1.15
2018-03-17T10:42:48.581Z,-1.02
2018-03-17T10:45:18.402Z,-1.10
2018-03-17T10:47:48.436Z,-1.14
2018-03-17T10:50:19.313Z,-1.14
2018-03-17T10:52:49.141Z,-1.00
2018-03-17T10:55:19.656Z,-0.75
2018-03-17T10:57:49.517Z,-0.59
2018-03-17T11:00:23.494Z,-0.63
2018-03-17T11:02:53.341Z,-0.55
2018-03-17T11:05:23.372Z,-0.44
2018-03-17T11:07:54.196Z,-0.60
2018-03-17T11:10:24.112Z,-0.78
2018-03-17T11:12:53.875Z,-0.75
2018-03-17T11:15:23.780Z,-0.90
2018-03-17T11:17:53.573Z,-0.75
2018-03-17T11:20:24.135Z,-0.66
2018-03-17T11:22:54.181Z,-0.68
2018-03-17T11:25:23.965Z,-0.90
2018-03-17T11:27:53.786Z,-0.93
2018-03-17T11:30:23.660Z,-0.90
2018-03-17T11:32:54.260Z,-0.89
2018-03-17T11:35:24.126Z,-1.16
2018-03-17T11:37:53.956Z,-1.17
2018-03-17T11:40:23.886Z,-1.06
2018-03-17T11:42:53.907Z,-0.70
2018-03-17T11:45:23.967Z,-0.81
2018-03-17T11:47:54.570Z,-0.71
2018-03-17T11:50:24.478Z,-0.59
2018-03-17T11:52:54.417Z,-0.33
2018-03-17T11:55:24.308Z,-0.69
2018-03-17T11:57:54.671Z,-0.83
2018-03-17T12:00:25.238Z,-0.58
2018-03-17T12:02:55.080Z,-0.73
2018-03-17T12:05:24.840Z,-0.92
2018-03-17T12:07:55.290Z,-0.60
2018-03-17T12:10:25.207Z,-0.72
2018-03-17T12:12:55.040Z,-0.64
2018-03-17T12:15:24.868Z,-0.87
2018-03-17T12:17:54.944Z,-0.83
2018-03-17T12:20:24.920Z,-0.68
2018-03-17T12:22:55.554Z,-0.52
2018-03-17T12:25:25.486Z,-0.47
2018-03-17T12:27:56.098Z,-0.58
2018-03-17T12:30:25.957Z,-0.80
2018-03-17T12:32:55.994Z,-0.82
2018-03-17T12:35:25.876Z,-0.88
2018-03-17T12:37:55.805Z,-0.95
2018-03-17T12:40:25.686Z,-0.70
2018-03-17T12:42:56.352Z,-0.70
2018-03-17T12:45:26.191Z,-0.73
2018-03-17T12:47:56.035Z,-0.85
2018-03-17T12:50:26.661Z,-0.78
2018-03-17T12:52:56.552Z,-1.04
2018-03-17T12:55:26.440Z,-1.09
2018-03-17T12:57:56.501Z,-0.81
2018-03-17T13:00:26.476Z,-0.78
2018-03-17T13:02:56.353Z,-0.54
2018-03-17T13:05:26.982Z,-0.70
2018-03-17T13:07:57.760Z,-0.78
2018-03-17T13:10:27.550Z,-0.87
2018-03-17T13:12:57.525Z,-0.82
2018-03-17T13:15:27.344Z,-0.79
2018-03-17T13:17:57.148Z,-0.64
2018-03-17T13:20:27.084Z,-0.69
2018-03-17T13:23:17.088Z,-0.70
2018-03-17T13:25:48.053Z,-0.54
2018-03-17T13:28:28.287Z,-0.55
2018-03-17T13:30:58.837Z,-0.59
2018-03-17T13:33:28.802Z,-0.57
2018-03-17T13:36:15.211Z,-0.72
2018-03-17T13:38:46.460Z,-0.78
2018-03-17T13:41:17.133Z,-0.70
2018-03-17T13:43:46.911Z,-0.72
2018-03-17T13:46:17.488Z,-0.60
2018-03-17T13:48:54.194Z,-0.54
2018-03-17T13:51:23.934Z,-0.46
2018-03-17T13:53:54.861Z,-0.49
2018-03-17T13:56:25.002Z,-0.21
2018-03-17T13:58:54.958Z,-0.17
2018-03-17T14:01:24.908Z,-0.32
2018-03-17T14:03:54.922Z,-0.51
2018-03-17T14:06:24.869Z,-0.60
2018-03-17T14:08:55.471Z,-0.58
2018-03-17T14:11:25.530Z,-0.45
2018-03-17T14:13:56.161Z,-0.48
2018-03-17T14:16:26.211Z,-0.60
2018-03-17T14:18:56.128Z,-0.81
2018-03-17T14:21:26.082Z,-0.89
2018-03-17T14:23:56.686Z,-0.92
2018-03-17T14:26:26.692Z,-0.81
2018-03-17T14:28:56.763Z,-0.77
2018-03-17T14:31:27.478Z,-0.73
2018-03-17T14:33:57.496Z,-0.75
2018-03-17T14:36:27.713Z,-0.54
2018-03-17T14:38:57.784Z,-0.52
2018-03-17T14:41:27.860Z,-0.68
2018-03-17T14:43:58.440Z,-0.64
2018-03-17T14:46:28.255Z,-0.78
2018-03-17T14:48:58.088Z,-0.76
2018-03-17T14:51:28.030Z,-0.86
2018-03-17T14:53:58.609Z,-0.88
2018-03-17T14:56:28.527Z,-0.84
2018-03-17T14:58:58.312Z,-0.83
2018-03-17T15:01:29.293Z,-0.85
2018-03-17T15:03:59.097Z,-0.79
2018-03-17T15:06:29.438Z,-0.79
2018-03-17T15:08:59.435Z,-0.75
2018-03-17T15:11:29.584Z,-0.76
2018-03-17T15:13:59.617Z,-0.82
2018-03-17T15:16:29.400Z,-0.76
2018-03-17T15:19:00.320Z,-0.60
2018-03-17T15:21:30.214Z,-0.57
2018-03-17T15:24:00.156Z,-0.62
2018-03-17T15:26:30.014Z,-0.64
2018-03-17T15:29:00.983Z,-0.73
2018-03-17T15:31:30.839Z,-0.75
2018-03-17T15:34:00.774Z,-0.76
2018-03-17T15:36:31.486Z,-0.62
2018-03-17T15:39:01.421Z,-0.61
2018-03-17T15:41:31.364Z,-0.88
2018-03-17T15:44:01.273Z,-0.93
2018-03-17T15:46:32.286Z,-0.83
2018-03-17T15:49:02.348Z,-0.77
2018-03-17T15:51:32.970Z,-0.78
2018-03-17T15:54:04.110Z,-0.79
2018-03-17T15:56:34.914Z,-0.71
2018-03-17T15:59:04.912Z,-0.68
2018-03-17T16:01:35.075Z,-0.63
2018-03-17T16:04:06.053Z,-0.67
2018-03-17T16:06:36.046Z,-0.82
2018-03-17T16:09:07.374Z,-0.70
2018-03-17T16:11:37.179Z,-0.81
2018-03-17T16:14:06.951Z,-0.77
2018-03-17T16:16:36.757Z,-0.94
2018-03-17T16:19:06.653Z,-0.90
2018-03-17T16:21:37.101Z,-0.83
2018-03-17T16:24:07.075Z,-0.90
2018-03-17T16:26:37.687Z,-0.89
2018-03-17T16:29:07.736Z,-0.98
2018-03-17T16:31:38.624Z,-0.93
2018-03-17T16:34:08.785Z,-0.87
2018-03-17T16:36:38.530Z,-0.97
2018-03-17T16:39:08.706Z,-0.97
2018-03-17T16:41:38.549Z,-1.08
2018-03-17T16:44:09.256Z,-0.91
2018-03-17T16:46:39.314Z,-0.96
2018-03-17T16:49:09.252Z,-0.93
2018-03-17T16:51:39.113Z,-0.98
2018-03-17T16:54:10.254Z,-1.00
2018-03-17T16:56:40.167Z,-1.03
2018-03-17T16:59:10.933Z,-1.12
2018-03-17T17:01:40.775Z,-1.04
2018-03-17T17:04:10.785Z,-0.97
2018-03-17T17:06:41.529Z,-0.94
2018-03-17T17:09:11.874Z,-0.99
2018-03-17T17:11:41.822Z,-0.97
2018-03-17T17:14:12.709Z,-1.02
2018-03-17T17:16:42.641Z,-1.04
2018-03-17T17:19:12.630Z,-1.03
2018-03-17T17:21:42.538Z,-1.09
2018-03-17T17:24:12.386Z,-1.06
2018-03-17T17:26:42.141Z,-1.01
2018-03-17T17:29:12.961Z,-1.12
2018-03-17T17:31:43.822Z,-1.19
2018-03-17T17:34:13.700Z,-1.10
2018-03-17T17:36:43.746Z,-1.11
2018-03-17T17:39:14.396Z,-1.08
2018-03-17T17:41:44.276Z,-1.08
2018-03-17T17:44:14.956Z,-1.04
2018-03-17T17:46:44.902Z,-0.98
2018-03-17T17:49:14.709Z,-1.00
2018-03-17T17:51:44.657Z,-1.16
2018-03-17T17:54:15.434Z,-0.98
2018-03-17T17:56:45.739Z,-1.02
2018-03-17T17:59:15.826Z,-0.98
2018-03-17T18:01:45.691Z,-0.93
2018-03-17T18:04:15.891Z,-0.95
2018-03-17T18:06:45.803Z,-1.03
2018-03-17T18:09:15.606Z,-0.95
2018-03-17T18:11:46.402Z,-0.93
2018-03-17T18:14:16.830Z,-0.92
2018-03-17T18:16:46.907Z,-0.95
2018-03-17T18:19:17.240Z,-1.01
2018-03-17T18:21:47.229Z,-1.08
2018-03-17T18:24:17.877Z,-1.08
2018-03-17T18:26:47.635Z,-1.02
2018-03-17T18:29:17.565Z,-0.92
2018-03-17T18:31:47.369Z,-0.86
2018-03-17T18:34:17.424Z,-0.81
2018-03-17T18:36:47.280Z,-0.89
2018-03-17T18:39:17.209Z,-0.88
2018-03-17T18:41:47.242Z,-0.97
2018-03-17T18:44:17.040Z,-1.01
2018-03-17T18:46:47.042Z,-0.96
2018-03-17T18:49:16.880Z,-0.92
2018-03-17T18:51:46.698Z,-0.87
2018-03-17T18:54:16.497Z,-0.78
2018-03-17T18:56:46.349Z,-0.80
2018-03-17T18:59:17.056Z,-0.88
2018-03-17T19:01:48.817Z,-0.92
2018-03-17T19:04:18.698Z,-0.90
2018-03-17T19:06:48.581Z,-0.83
2018-03-17T19:09:18.442Z,-0.85
2018-03-17T19:11:48.524Z,-0.80
2018-03-17T19:14:18.405Z,-0.85
2018-03-17T19:16:49.071Z,-0.89
2018-03-17T19:19:18.873Z,-0.90
2018-03-17T19:21:48.963Z,-0.89
2018-03-17T19:24:18.773Z,-0.88
2018-03-17T19:26:49.101Z,-0.86
2018-03-17T19:29:19.710Z,-0.89
2018-03-17T19:31:49.496Z,-0.89
2018-03-17T19:34:19.351Z,-0.85
2018-03-17T19:36:49.084Z,-0.87
2018-03-17T19:39:19.200Z,-0.84
2018-03-17T19:41:50.057Z,-0.85
2018-03-17T19:44:19.986Z,-0.88
2018-03-17T19:46:49.942Z,-0.88
2018-03-17T19:49:19.829Z,-0.76
2018-03-17T19:51:49.740Z,-0.73
2018-03-17T19:54:19.809Z,-0.66
2018-03-17T19:56:49.646Z,-0.69
2018-03-17T19:59:19.552Z,-0.67
2018-03-17T20:01:49.309Z,-0.75
2018-03-17T20:04:19.520Z,-0.76
2018-03-17T20:06:49.296Z,-0.70
2018-03-17T20:09:19.877Z,-0.73
2018-03-17T20:11:49.807Z,-0.74
2018-03-17T20:14:19.722Z,-0.73
2018-03-17T20:16:49.739Z,-0.72
2018-03-17T20:19:19.469Z,-0.70
2018-03-17T20:21:49.390Z,-0.74
2018-03-17T20:24:20.342Z,-0.73
2018-03-17T20:26:50.813Z,-0.65
2018-03-17T20:29:20.597Z,-0.68
2018-03-17T20:31:50.317Z,-0.77
2018-03-17T20:34:20.264Z,-0.75
2018-03-17T20:36:50.126Z,-0.73
2018-03-17T20:39:20.813Z,-0.73
2018-03-17T20:41:50.633Z,-0.69
2018-03-17T20:44:20.489Z,-0.62
2018-03-17T20:46:50.454Z,-0.69
2018-03-17T20:49:20.347Z,-0.71
2018-03-17T20:51:50.197Z,-0.70
2018-03-17T20:54:20.272Z,-0.73
2018-03-17T20:56:50.214Z,-0.71
2018-03-17T20:59:20.138Z,-0.61
2018-03-17T21:01:50.067Z,-0.59
2018-03-17T21:04:19.874Z,-0.62
2018-03-17T21:06:49.582Z,-0.56
2018-03-17T21:09:19.318Z,-0.62
2018-03-17T21:11:50.001Z,-0.65
2018-03-17T21:14:19.910Z,-0.58
2018-03-17T21:16:49.669Z,-0.60
2018-03-17T21:19:19.401Z,-0.57
2018-03-17T21:21:49.465Z,-0.55
2018-03-17T21:24:19.391Z,-0.61
2018-03-17T21:26:49.198Z,-0.59
2018-03-17T21:29:19.045Z,-0.54
2018-03-17T21:31:50.173Z,-0.44
2018-03-17T21:34:20.319Z,-0.43
2018-03-17T21:36:51.049Z,-0.48
2018-03-17T21:39:21.601Z,-0.50
2018-03-17T21:41:51.468Z,-0.48
2018-03-17T21:44:21.428Z,-0.44
2018-03-17T21:46:51.249Z,-0.47
2018-03-17T21:49:21.094Z,-0.47
2018-03-17T21:51:51.108Z,-0.36
2018-03-17T21:54:21.188Z,-0.33
2018-03-17T21:56:51.087Z,-0.26
2018-03-17T21:59:22.036Z,-0.26
2018-03-17T22:01:52.561Z,-0.27
2018-03-17T22:04:23.281Z,-0.49
2018-03-17T22:06:53.189Z,-0.41
2018-03-17T22:09:23.178Z,-0.39
2018-03-17T22:11:53.012Z,-0.35
2018-03-17T22:14:23.157Z,-0.36
2018-03-17T22:16:53.807Z,-0.42
2018-03-17T22:19:23.524Z,-0.37
2018-03-17T22:21:53.400Z,-0.38
2018-03-17T22:24:23.245Z,-0.34
2018-03-17T22:26:53.119Z,-0.23
2018-03-17T22:29:23.007Z,-0.20
2018-03-17T22:31:53.043Z,-0.22
2018-03-17T22:34:22.860Z,-0.28
2018-03-17T22:36:52.729Z,-0.26
2018-03-17T22:39:22.513Z,-0.23
2018-03-17T22:41:53.310Z,-0.14
2018-03-17T22:44:23.196Z,-0.18
2018-03-17T22:46:53.152Z,-0.10
2018-03-17T22:49:23.100Z,-0.21
2018-03-17T22:51:53.745Z,-0.26
2018-03-17T22:54:23.513Z,-0.23
2018-03-17T22:56:53.442Z,-0.24
2018-03-17T22:59:23.196Z,-0.20
2018-03-17T23:01:53.246Z,-0.19
2018-03-17T23:04:23.047Z,-0.24
2018-03-17T23:06:53.267Z,-0.18
2018-03-17T23:09:23.120Z,-0.24
2018-03-17T23:11:53.195Z,-0.27
2018-03-17T23:14:23.111Z,-0.34
2018-03-17T23:16:52.832Z,-0.34
2018-03-17T23:19:23.040Z,-0.28
2018-03-17T23:21:52.943Z,-0.30
2018-03-17T23:24:23.219Z,-0.32
2018-03-17T23:26:52.976Z,-0.23
2018-03-17T23:29:22.901Z,-0.27
2018-03-17T23:31:52.725Z,-0.25
2018-03-17T23:34:22.528Z,-0.17
2018-03-17T23:36:52.487Z,-0.22
2018-03-17T23:39:22.268Z,-0.18
2018-03-17T23:41:52.360Z,-0.32
2018-03-17T23:44:22.179Z,-0.23
2018-03-17T23:46:52.073Z,-0.25
2018-03-17T23:49:22.696Z,-0.27
2018-03-17T23:51:52.831Z,-0.24
2018-03-17T23:54:23.437Z,-0.24
2018-03-17T23:56:54.888Z,-0.30
2018-03-17T23:59:24.849Z,-0.17
